Time;durP1;ratioP1;P1;durP2;ratioP2;P2;SDS_P1;SDS_P2;PMS_P1;PMS_P2;Temp;Humidity;BMP_temperature;BMP_pressure;BME280_temperature;BME280_humidity;BME280_pressure;Samples;Min_cycle;Max_cycle;Signal;HPM_P1;HPM_P2
2021/03/24 00:00:42;;;;;;;0.80;0.80;;;;;;;0.88;73.79;92876.66;5027673;28;20117;-50
2021/03/24 00:03:08;;;;;;;0.85;0.82;;;;;;;0.73;74.17;92874.25;5041532;28;20021;-46
2021/03/24 00:05:40;;;;;;;4.72;2.55;;;;;;;0.65;75.13;92865.13;5047604;28;20036;-51
2021/03/24 00:08:06;;;;;;;1.50;1.50;;;;;;;0.76;74.77;92865.06;5047711;28;20053;-48
2021/03/24 00:10:32;;;;;;;2.20;0.90;;;;;;;0.76;75.09;92870.50;5047484;28;20029;-48
2021/03/24 00:12:58;;;;;;;0.98;0.95;;;;;;;0.85;75.21;92872.94;5047317;28;20517;-49
2021/03/24 00:15:24;;;;;;;5.47;0.77;;;;;;;0.77;75.14;92869.28;5047629;28;20467;-47
2021/03/24 00:17:50;;;;;;;0.40;0.40;;;;;;;0.81;74.81;92864.31;5047425;28;20033;-50
2021/03/24 00:20:22;;;;;;;2.42;2.20;;;;;;;0.78;75.25;92862.59;5047440;28;20028;-50
2021/03/24 00:22:47;;;;;;;4.47;1.38;;;;;;;0.85;74.88;92869.50;5047421;28;20036;-53
2021/03/24 00:25:15;;;;;;;0.40;0.40;;;;;;;0.86;74.20;92860.09;5047340;28;20037;-53
2021/03/24 00:27:49;;;;;;;0.75;0.75;;;;;;;0.82;74.81;92868.53;5027604;28;20081;-50
2021/03/24 00:30:18;;;;;;;0.68;0.68;;;;;;;0.77;75.14;92839.41;5027255;28;20034;-52
2021/03/24 00:32:44;;;;;;;0.40;0.40;;;;;;;0.89;74.69;92854.41;5026676;28;20485;-51
2021/03/24 00:35:10;;;;;;;0.57;0.57;;;;;;;0.88;75.31;92850.22;5027465;28;20044;-50
2021/03/24 00:37:36;;;;;;;1.60;1.50;;;;;;;0.86;75.31;92841.84;5027394;28;20026;-50
2021/03/24 00:40:04;;;;;;;0.52;0.52;;;;;;;0.87;75.27;92845.28;5026916;28;20437;-47
2021/03/24 00:42:30;;;;;;;0.40;0.40;;;;;;;1.03;74.64;92836.31;5026861;28;20102;-48
2021/03/24 00:44:55;;;;;;;1.15;1.15;;;;;;;1.06;74.21;92843.47;5027561;28;20847;-48
2021/03/24 00:47:20;;;;;;;0.30;0.30;;;;;;;1.09;74.48;92850.59;5027646;28;20036;-49
2021/03/24 00:49:46;;;;;;;2.05;1.50;;;;;;;0.97;74.51;92849.19;5046977;28;20501;-49
2021/03/24 00:52:11;;;;;;;1.75;1.65;;;;;;;0.87;74.52;92848.00;5047025;28;20413;-49
2021/03/24 00:54:37;;;;;;;1.13;1.13;;;;;;;0.79;75.30;92842.34;5046998;28;20409;-47
2021/03/24 00:57:02;;;;;;;1.02;0.77;;;;;;;0.84;75.55;92847.03;5046913;28;20508;-47
2021/03/24 00:59:28;;;;;;;0.75;0.75;;;;;;;1.00;75.16;92835.31;5047469;28;20048;-49
2021/03/24 01:01:53;;;;;;;0.50;0.50;;;;;;;0.99;74.72;92833.88;5046951;28;20029;-47
2021/03/24 01:04:19;;;;;;;0.50;0.50;;;;;;;0.86;75.49;92841.84;5046845;28;20032;-47
2021/03/24 01:06:44;;;;;;;0.50;0.50;;;;;;;0.76;75.54;92837.91;5040922;28;20729;-46
2021/03/24 01:09:10;;;;;;;0.40;0.40;;;;;;;0.63;76.27;92833.03;5037491;28;20406;-46
2021/03/24 01:11:40;;;;;;;1.13;1.13;;;;;;;0.68;76.12;92836.97;5040419;28;20021;-47
2021/03/24 01:14:07;;;;;;;1.50;1.40;;;;;;;0.71;75.48;92825.09;5040042;28;20037;-46
2021/03/24 01:16:33;;;;;;;4.07;1.05;;;;;;;0.67;75.85;92827.34;5039207;28;20032;-46
2021/03/24 01:18:58;;;;;;;0.40;0.40;;;;;;;0.72;76.13;92821.88;5040645;28;20017;-46
2021/03/24 01:21:23;;;;;;;1.35;1.35;;;;;;;0.72;76.57;92819.16;5040467;28;20029;-47
2021/03/24 01:23:49;;;;;;;0.82;0.82;;;;;;;0.74;76.87;92818.66;5041974;28;20100;-49
2021/03/24 01:26:15;;;;;;;0.40;0.40;;;;;;;0.60;76.59;92808.84;5041442;28;20033;-47
2021/03/24 01:28:40;;;;;;;3.33;1.00;;;;;;;0.70;76.79;92820.91;5030138;28;20546;-50
2021/03/24 01:31:06;;;;;;;0.80;0.80;;;;;;;0.66;76.98;92813.03;5029889;28;20025;-46
2021/03/24 01:33:31;;;;;;;0.40;0.40;;;;;;;0.70;76.95;92808.06;5030112;28;20395;-45
2021/03/24 01:35:57;;;;;;;0.30;0.30;;;;;;;0.69;77.17;92803.84;5029796;28;20414;-47
2021/03/24 01:38:22;;;;;;;0.30;0.30;;;;;;;0.70;77.39;92810.03;5029926;28;20086;-49
2021/03/24 01:40:54;;;;;;;0.98;0.98;;;;;;;0.71;77.37;92806.09;5029852;28;20044;-47
2021/03/24 01:43:22;;;;;;;1.42;0.88;;;;;;;0.61;77.45;92804.88;5030053;28;20039;-50
2021/03/24 01:46:19;;;;;;;0.75;0.75;;;;;;;0.69;77.32;92805.84;5030003;28;20092;-47
2021/03/24 01:49:12;;;;;;;1.08;1.08;;;;;;;0.71;77.70;92803.38;5029634;28;20443;-47
2021/03/24 01:51:42;;;;;;;0.95;0.95;;;;;;;0.78;77.45;92797.38;5030056;28;20113;-47
2021/03/24 01:54:11;;;;;;;0.45;0.45;;;;;;;0.69;77.83;92800.41;5029728;28;20112;-47
2021/03/24 01:56:38;;;;;;;0.45;0.45;;;;;;;0.68;77.35;92793.50;5029652;28;20025;-46
2021/03/24 01:59:04;;;;;;;0.45;0.45;;;;;;;0.64;77.46;92788.34;5029350;28;20057;-48
2021/03/24 02:01:30;;;;;;;0.88;0.88;;;;;;;0.63;77.04;92788.81;5029609;28;20132;-48
2021/03/24 02:03:55;;;;;;;0.45;0.40;;;;;;;0.60;77.80;92792.56;5029604;28;20045;-49
2021/03/24 02:06:35;;;;;;;0.38;0.38;;;;;;;0.73;77.65;92785.34;5029495;28;20032;-49
2021/03/24 02:09:24;;;;;;;0.60;0.60;;;;;;;0.60;77.85;92785.16;5028254;28;20058;-49
2021/03/24 02:11:57;;;;;;;0.30;0.30;;;;;;;0.69;76.89;92778.69;5032310;28;20038;-48
2021/03/24 02:14:27;;;;;;;0.38;0.38;;;;;;;0.57;77.43;92779.97;5029431;28;20044;-50
2021/03/24 02:16:53;;;;;;;0.43;0.43;;;;;;;0.55;76.92;92763.44;5028225;28;20124;-48
2021/03/24 02:19:35;;;;;;;2.50;2.20;;;;;;;0.56;77.56;92781.22;5028011;28;20022;-47
2021/03/24 02:22:01;;;;;;;0.57;0.57;;;;;;;0.42;77.39;92774.09;5028064;28;20033;-48
2021/03/24 02:24:59;;;;;;;0.63;0.63;;;;;;;0.56;77.14;92784.66;5028105;28;20029;-47
2021/03/24 02:27:52;;;;;;;0.47;0.47;;;;;;;0.73;77.47;92777.19;5047798;28;20184;-48
2021/03/24 02:30:24;;;;;;;0.30;0.30;;;;;;;0.70;76.50;92780.88;5047601;28;20501;-48
2021/03/24 02:32:59;;;;;;;1.10;1.10;;;;;;;0.68;76.06;92777.19;5048954;28;20037;-47
2021/03/24 02:35:28;;;;;;;0.47;0.47;;;;;;;0.68;76.40;92777.19;5047611;28;20021;-48
2021/03/24 02:37:56;;;;;;;0.30;0.30;;;;;;;0.65;76.62;92778.22;5048907;28;20104;-51
2021/03/24 02:40:22;;;;;;;1.65;1.30;;;;;;;0.69;77.48;92763.09;5047676;28;20029;-46
2021/03/24 02:42:48;;;;;;;1.23;1.13;;;;;;;0.77;77.35;92769.50;5047668;28;20021;-49
2021/03/24 02:45:16;;;;;;;3.00;2.10;;;;;;;0.80;76.56;92762.34;5047588;28;20029;-49
2021/03/24 02:47:43;;;;;;;1.42;1.33;;;;;;;0.86;75.76;92760.31;5048816;28;20073;-49
2021/03/24 02:50:09;;;;;;;0.30;0.30;;;;;;;0.88;76.33;92759.81;5047503;28;20029;-50
2021/03/24 02:52:35;;;;;;;1.05;1.05;;;;;;;0.70;76.54;92742.84;5047452;28;20032;-49
2021/03/24 02:55:02;;;;;;;0.30;0.30;;;;;;;0.64;76.74;92741.41;5048195;28;20086;-50
2021/03/24 02:57:28;;;;;;;1.23;0.70;;;;;;;0.75;76.44;92744.81;5047236;28;20081;-48
2021/03/24 02:59:53;;;;;;;0.57;0.57;;;;;;;0.70;76.74;92744.81;5046987;28;20024;-51
2021/03/24 03:02:21;;;;;;;0.75;0.75;;;;;;;0.71;77.03;92749.03;5048663;28;20021;-51
2021/03/24 03:04:50;;;;;;;2.57;1.30;;;;;;;0.74;76.40;92746.03;5047365;28;20021;-48
2021/03/24 03:07:17;;;;;;;;;;;;;;;0.72;77.20;92753.22;5047691;28;20562;-49
2021/03/24 03:09:51;;;;;;;1.17;1.17;;;;;;;0.68;76.97;92748.06;5047185;28;20376;-49
2021/03/24 03:12:21;;;;;;;1.67;1.65;;;;;;;0.63;77.56;92748.81;5048168;28;20033;-50
2021/03/24 03:14:56;;;;;;;2.38;2.15;;;;;;;0.53;78.33;92757.75;5047211;28;20489;-47
2021/03/24 03:17:33;;;;;;;0.60;0.60;;;;;;;0.51;78.27;92758.28;5048217;28;20022;-49
2021/03/24 03:20:14;;;;;;;1.23;1.23;;;;;;;0.64;78.48;92753.03;5047010;28;20029;-47
2021/03/24 03:22:45;;;;;;;1.50;1.48;;;;;;;0.57;78.26;92750.81;5046963;28;20149;-51
2021/03/24 03:25:15;;;;;;;1.08;0.98;;;;;;;0.55;78.25;92755.28;5046942;28;20039;-49
2021/03/24 03:27:43;;;;;;;1.23;1.13;;;;;;;0.56;78.69;92748.63;5027147;28;20109;-49
2021/03/24 03:30:12;;;;;;;0.30;0.30;;;;;;;0.56;78.86;92740.47;5027871;28;20030;-48
2021/03/24 03:32:39;;;;;;;0.40;0.40;;;;;;;0.51;78.81;92744.69;5027672;28;20494;-48
2021/03/24 03:35:10;;;;;;;0.25;0.25;;;;;;;0.51;78.96;92746.66;5046788;28;20390;-51
2021/03/24 03:37:36;;;;;;;0.50;0.50;;;;;;;0.53;79.00;92746.91;5046813;28;20093;-49
2021/03/24 03:40:04;;;;;;;0.55;0.55;;;;;;;0.61;78.90;92735.00;5046885;28;20107;-51
2021/03/24 03:42:30;;;;;;;0.40;0.40;;;;;;;0.73;78.95;92746.56;5046714;28;20025;-52
2021/03/24 03:44:56;;;;;;;0.40;0.40;;;;;;;0.73;77.99;92746.56;5046537;28;20029;-49
2021/03/24 03:47:22;;;;;;;0.20;0.20;;;;;;;0.66;78.02;92752.50;5025090;28;20052;-46
2021/03/24 03:49:47;;;;;;;0.32;0.32;;;;;;;0.67;77.82;92752.00;5026598;28;20486;-48
2021/03/24 03:52:34;;;;;;;0.28;0.28;;;;;;;0.52;78.00;92756.31;5027867;28;20029;-49
2021/03/24 03:55:15;;;;;;;0.30;0.30;;;;;;;0.38;78.78;92751.91;5027344;28;20707;-48
2021/03/24 03:57:53;;;;;;;0.35;0.35;;;;;;;0.42;78.19;92755.84;5027586;28;20106;-46
2021/03/24 04:00:21;;;;;;;;;;;;;;;0.39;78.78;92745.97;5028067;28;20506;-47
2021/03/24 04:02:58;;;;;;;0.28;0.28;;;;;;;0.33;79.53;92741.78;5027721;28;19920;-49
2021/03/24 04:05:29;;;;;;;0.30;0.30;;;;;;;0.27;79.54;92743.78;5026606;28;20029;-50
2021/03/24 04:08:09;;;;;;;0.75;0.75;;;;;;;0.24;78.57;92744.81;5027560;28;20037;-48
2021/03/24 04:10:37;;;;;;;0.20;0.20;;;;;;;0.20;79.68;92744.31;5026295;28;20032;-46
2021/03/24 04:13:05;;;;;;;0.32;0.32;;;;;;;0.20;79.81;92745.06;5027675;28;20112;-50
2021/03/24 04:15:31;;;;;;;0.63;0.63;;;;;;;0.18;80.46;92744.06;5026378;28;20173;-48
2021/03/24 04:18:01;;;;;;;0.20;0.20;;;;;;;0.13;81.20;92745.56;5027695;28;20017;-46
2021/03/24 04:20:28;;;;;;;0.20;0.20;;;;;;;0.11;81.42;92739.19;5027668;28;20033;-47
2021/03/24 04:22:56;;;;;;;0.30;0.30;;;;;;;0.09;81.58;92739.66;5027580;28;20033;-49
2021/03/24 04:25:28;;;;;;;0.38;0.38;;;;;;;0.10;81.39;92740.41;5027307;28;20053;-49
2021/03/24 04:27:55;;;;;;;0.20;0.20;;;;;;;0.05;81.49;92750.03;5026278;28;20030;-48
2021/03/24 04:30:27;;;;;;;0.22;0.22;;;;;;;0.05;80.93;92752.00;5026109;28;20037;-48
2021/03/24 04:32:52;;;;;;;0.45;0.45;;;;;;;0.00;80.69;92754.25;5026313;28;20060;-47
2021/03/24 04:35:20;;;;;;;0.40;0.40;;;;;;;0.05;80.31;92771.00;5026289;28;20109;-47
2021/03/24 04:37:49;;;;;;;0.40;0.40;;;;;;;-0.11;81.06;92762.41;5027349;28;20034;-45
2021/03/24 04:40:21;;;;;;;;;;;;;;;-0.06;82.11;92758.22;5026821;28;20105;-50
2021/03/24 04:43:00;;;;;;;1.50;1.40;;;;;;;-0.25;81.27;92770.84;5028913;28;19909;-48
2021/03/24 04:45:44;;;;;;;0.77;0.73;;;;;;;-0.29;81.05;92771.09;5030769;28;20064;-49
2021/03/24 04:48:30;;;;;;;0.40;0.40;;;;;;;-0.21;80.67;92774.78;5029570;28;20034;-48
2021/03/24 04:50:58;;;;;;;0.30;0.30;;;;;;;-0.23;80.03;92774.53;5029568;28;20116;-47
2021/03/24 04:53:26;;;;;;;2.08;1.75;;;;;;;-0.23;78.66;92774.53;5043283;28;20029;-47
2021/03/24 04:55:52;;;;;;;0.93;0.85;;;;;;;-0.24;78.86;92762.19;5049263;28;20036;-46
2021/03/24 04:58:30;;;;;;;0.40;0.40;;;;;;;-0.30;79.50;92747.91;5039037;28;20053;-49
2021/03/24 05:01:15;;;;;;;0.82;0.82;;;;;;;-0.27;79.47;92757.78;5029404;28;20033;-49
2021/03/24 05:03:43;;;;;;;0.50;0.50;;;;;;;-0.18;79.24;92767.63;5029349;28;20036;-50
2021/03/24 05:06:25;;;;;;;0.63;0.63;;;;;;;-0.22;79.74;92783.41;5029278;28;20030;-46
2021/03/24 05:08:51;;;;;;;0.40;0.40;;;;;;;-0.20;80.33;92778.97;5030342;28;20030;-46
2021/03/24 05:11:25;;;;;;;1.17;1.13;;;;;;;-0.15;80.12;92775.50;5029215;28;20094;-45
2021/03/24 05:14:18;;;;;;;1.40;1.05;;;;;;;-0.08;80.19;92777.72;5029082;28;20033;-48
2021/03/24 05:16:45;;;;;;;0.98;0.98;;;;;;;-0.11;80.20;92794.97;5031992;28;20505;-47
2021/03/24 05:19:37;;;;;;;0.88;0.77;;;;;;;-0.13;80.64;92794.72;5037210;28;20036;-50
2021/03/24 05:22:30;;;;;;;0.50;0.50;;;;;;;-0.07;80.62;92795.47;5051216;28;20052;-48
2021/03/24 05:25:03;;;;;;;1.77;1.45;;;;;;;0.10;80.50;92798.16;5048738;28;20044;-47
2021/03/24 05:27:33;;;;;;;1.38;1.27;;;;;;;0.21;79.94;92805.53;5049887;28;20094;-51
2021/03/24 05:30:24;;;;;;;0.63;0.63;;;;;;;0.31;79.95;92810.19;5047476;28;20394;-45
2021/03/24 05:32:55;;;;;;;0.88;0.88;;;;;;;0.35;79.42;92815.34;5040275;28;20040;-48
2021/03/24 05:35:34;;;;;;;0.20;0.20;;;;;;;0.26;78.25;92819.06;5043222;28;20033;-46
2021/03/24 05:38:14;;;;;;;0.30;0.30;;;;;;;0.18;78.51;92830.94;5048646;28;20116;-50
2021/03/24 05:41:07;;;;;;;0.20;0.20;;;;;;;0.14;78.52;92841.31;5045212;28;20089;-48
2021/03/24 05:43:47;;;;;;;0.20;0.20;;;;;;;0.12;78.08;92841.06;5041493;28;20100;-49
2021/03/24 05:46:26;;;;;;;0.20;0.20;;;;;;;0.19;78.08;92846.75;5043091;28;20036;-51
2021/03/24 05:49:01;;;;;;;0.30;0.30;;;;;;;0.24;76.99;92854.13;5047023;28;20043;-48
2021/03/24 05:52:05;;;;;;;0.40;0.40;;;;;;;0.27;76.30;92858.56;5048568;28;20025;-47
2021/03/24 05:54:52;;;;;;;0.25;0.25;;;;;;;0.14;73.93;92860.31;5058246;28;20581;-49
2021/03/24 05:57:30;;;;;;;1.13;0.68;;;;;;;0.16;73.66;92872.16;5047184;28;20067;-49
2021/03/24 06:00:21;;;;;;;1.50;1.42;;;;;;;0.13;72.27;92873.13;5047274;28;20028;-47
2021/03/24 06:03:10;;;;;;;0.50;0.50;;;;;;;0.15;71.44;92878.09;5047092;28;20029;-53
2021/03/24 06:05:56;;;;;;;0.50;0.50;;;;;;;0.09;70.60;92880.78;5043142;28;20029;-47
2021/03/24 06:08:39;;;;;;;0.20;0.20;;;;;;;-0.11;70.56;92881.78;5040240;28;20033;-46
2021/03/24 06:11:28;;;;;;;0.30;0.30;;;;;;;-0.10;70.81;92888.72;5027665;28;20067;-49
2021/03/24 06:14:05;;;;;;;1.70;1.60;;;;;;;-0.06;69.84;92891.91;5038308;27;20082;-62
2021/03/24 06:16:48;;;;;;;0.50;0.50;;;;;;;-0.28;70.14;92886.47;5042234;28;20037;-59
2021/03/24 06:19:58;;;;;;;1.25;1.13;;;;;;;-0.32;70.56;92915.06;5046207;28;20085;-46
2021/03/24 06:22:38;;;;;;;0.50;0.50;;;;;;;-0.59;70.21;92910.34;5026973;28;20485;-46
2021/03/24 06:25:10;;;;;;;0.52;0.52;;;;;;;-0.69;72.06;92928.09;5039832;28;20037;-49
2021/03/24 06:27:58;;;;;;;0.30;0.30;;;;;;;-0.60;71.79;92928.59;5034444;27;20028;-50
2021/03/24 06:30:42;;;;;;;0.30;0.30;;;;;;;-0.63;72.01;92934.25;5037986;28;20127;-44
2021/03/24 06:33:33;;;;;;;0.30;0.30;;;;;;;-0.78;72.55;92942.59;5027678;28;20428;-45
2021/03/24 06:36:10;;;;;;;0.28;0.28;;;;;;;-0.96;74.46;92945.72;5026215;28;20512;-44
2021/03/24 06:39:00;;;;;;;0.98;0.88;;;;;;;-0.97;74.45;92955.81;5027498;28;20041;-47
2021/03/24 06:41:56;;;;;;;0.20;0.20;;;;;;;-0.93;74.72;92972.59;5027541;28;20044;-48
2021/03/24 06:44:41;;;;;;;0.20;0.20;;;;;;;-1.00;75.16;92975.78;5027289;28;20025;-46
2021/03/24 06:47:35;;;;;;;0.30;0.30;;;;;;;-1.19;76.28;92979.38;5027227;28;20030;-49
2021/03/24 06:50:35;;;;;;;1.10;1.10;;;;;;;-1.16;76.59;92972.97;5007566;28;20130;-48
2021/03/24 06:53:18;;;;;;;0.20;0.20;;;;;;;-1.09;75.57;92973.25;5027797;28;20757;-51
2021/03/24 06:56:04;;;;;;;0.30;0.30;;;;;;;-0.98;74.12;92981.44;5027153;28;20029;-52
2021/03/24 06:58:48;;;;;;;0.20;0.20;;;;;;;-0.71;72.86;92980.06;5026861;28;20102;-50
2021/03/24 07:01:27;;;;;;;0.30;0.30;;;;;;;-0.54;71.34;92980.84;5027085;28;20041;-50
2021/03/24 07:04:14;;;;;;;0.35;0.35;;;;;;;-0.64;69.80;92981.56;5027273;28;20145;-50
2021/03/24 07:07:08;;;;;;;0.35;0.35;;;;;;;-0.43;70.38;92999.88;5024753;28;20029;-49
2021/03/24 07:09:37;;;;;;;0.22;0.22;;;;;;;-0.01;70.01;92996.25;5026610;28;20497;-47
2021/03/24 07:12:13;;;;;;;0.30;0.30;;;;;;;0.26;70.13;93009.09;5032194;28;20039;-46
2021/03/24 07:14:47;;;;;;;0.20;0.20;;;;;;;0.27;70.16;93010.59;5035552;28;20040;-44
2021/03/24 07:17:19;;;;;;;0.20;0.20;;;;;;;0.98;69.58;93011.00;5040691;28;20037;-47
2021/03/24 07:19:57;;;;;;;0.35;0.35;;;;;;;1.69;66.17;93009.31;5037055;28;20073;-44
2021/03/24 07:22:53;;;;;;;0.20;0.20;;;;;;;2.24;63.85;93008.97;5039262;28;20029;-45
2021/03/24 07:25:37;;;;;;;0.32;0.32;;;;;;;2.43;61.92;93015.28;5036268;28;20493;-45
2021/03/24 07:28:21;;;;;;;0.32;0.32;;;;;;;3.53;59.09;93021.66;5037305;28;20067;-45
2021/03/24 07:31:09;;;;;;;0.20;0.20;;;;;;;4.92;53.47;92993.13;5037210;28;20493;-44
2021/03/24 07:33:49;;;;;;;0.20;0.20;;;;;;;6.23;50.93;93033.47;5041460;28;20032;-47
2021/03/24 07:36:18;;;;;;;0.73;0.73;;;;;;;6.79;47.42;93028.97;5037229;28;20132;-43
2021/03/24 07:39:12;;;;;;;0.20;0.20;;;;;;;7.74;44.38;93040.31;5041011;28;20029;-44
2021/03/24 07:41:55;;;;;;;0.20;0.20;;;;;;;7.38;43.93;93043.75;5044205;28;20036;-44
2021/03/24 07:44:30;;;;;;;0.43;0.43;;;;;;;7.58;43.73;93040.22;5036442;28;20037;-46
2021/03/24 07:47:03;;;;;;;0.20;0.20;;;;;;;7.93;44.00;93047.03;5038952;28;20036;-45
2021/03/24 07:49:40;;;;;;;0.30;0.30;;;;;;;7.87;43.03;93049.22;5035839;28;20036;-44
2021/03/24 07:52:08;;;;;;;0.55;0.55;;;;;;;7.26;44.63;93061.03;5046051;28;20033;-45
2021/03/24 07:54:40;;;;;;;0.20;0.20;;;;;;;6.59;46.80;93068.06;5046324;28;20117;-43
2021/03/24 07:57:37;;;;;;;0.38;0.38;;;;;;;5.80;46.96;93069.44;5037647;28;20037;-40
2021/03/24 08:00:20;;;;;;;0.20;0.20;;;;;;;4.99;48.44;93082.03;5041515;28;20140;-36
2021/03/24 08:02:56;;;;;;;0.20;0.20;;;;;;;4.42;48.74;93083.38;5046276;28;20586;-44
2021/03/24 08:05:55;;;;;;;0.30;0.30;;;;;;;3.78;50.81;93102.31;5045002;28;20024;-44
2021/03/24 08:08:39;;;;;;;;;;;;;;;3.49;52.20;93107.81;5046612;28;20029;-44
2021/03/24 08:11:22;;;;;;;0.30;0.30;;;;;;;3.44;52.94;93114.81;5038199;28;20464;-48
2021/03/24 08:14:00;;;;;;;0.20;0.20;;;;;;;3.10;55.93;93132.72;5039684;28;20577;-41
2021/03/24 08:16:50;;;;;;;0.32;0.32;;;;;;;3.03;56.51;93136.00;5042858;28;20029;-43
2021/03/24 08:19:26;;;;;;;3.90;0.70;;;;;;;2.84;57.60;93146.03;5048323;28;20021;-44
2021/03/24 08:21:58;;;;;;;0.20;0.20;;;;;;;2.76;57.21;93156.00;5044603;28;20063;-41
2021/03/24 08:24:41;;;;;;;0.30;0.30;;;;;;;2.42;58.90;93166.38;5033226;28;20025;-42
2021/03/24 08:27:22;;;;;;;2.03;1.20;;;;;;;1.85;60.71;93175.25;5040531;28;20070;-42
2021/03/24 08:30:00;;;;;;;1.73;1.63;;;;;;;1.71;60.69;93186.41;5048233;28;20490;-43
2021/03/24 08:32:47;;;;;;;0.30;0.30;;;;;;;1.38;60.53;93185.25;5049532;28;20107;-44
2021/03/24 08:35:22;;;;;;;0.30;0.30;;;;;;;1.29;59.98;93201.06;5041997;28;20051;-44
2021/03/24 08:38:09;;;;;;;0.30;0.30;;;;;;;1.33;58.14;93185.97;5049592;28;20107;-43
2021/03/24 08:40:41;;;;;;;3.42;1.60;;;;;;;1.21;57.55;93200.78;5030448;28;20074;-44
2021/03/24 08:43:44;;;;;;;0.30;0.30;;;;;;;1.49;57.81;93193.34;5030364;28;20032;-45
2021/03/24 08:46:30;;;;;;;0.20;0.20;;;;;;;1.68;55.14;93198.28;5030463;28;20037;-45
2021/03/24 08:49:00;;;;;;;0.30;0.30;;;;;;;1.43;55.34;93187.19;5040318;28;20098;-43
2021/03/24 08:51:49;;;;;;;0.20;0.20;;;;;;;1.66;56.27;93192.59;5049042;28;20033;-44
2021/03/24 08:54:14;;;;;;;;;;;;;;;1.92;53.14;93188.34;5031380;28;20028;-44
2021/03/24 08:57:04;;;;;;;0.20;0.20;;;;;;;2.41;53.98;93177.75;5049294;28;20615;-42
2021/03/24 08:59:42;;;;;;;0.50;0.50;;;;;;;2.53;51.75;93176.47;5047015;28;20064;-43
2021/03/24 09:02:37;;;;;;;0.25;0.25;;;;;;;3.07;50.71;93172.63;5043112;28;20037;-44
2021/03/24 09:05:41;;;;;;;0.30;0.30;;;;;;;3.64;50.54;93162.75;5036645;28;20466;-44
2021/03/24 09:08:35;;;;;;;0.20;0.20;;;;;;;4.91;46.75;93168.72;5052705;28;20097;-45
2021/03/24 09:11:14;;;;;;;0.20;0.20;;;;;;;6.66;40.85;93170.94;5048048;28;20064;-48
2021/03/24 09:14:03;;;;;;;0.30;0.30;;;;;;;7.39;38.36;93160.56;5049461;28;20021;-43
2021/03/24 09:17:08;;;;;;;0.20;0.20;;;;;;;8.10;37.98;93159.34;5048087;28;20029;-44
2021/03/24 09:19:55;;;;;;;0.55;0.55;;;;;;;9.45;35.32;93161.97;5039777;28;20052;-46
2021/03/24 09:22:45;;;;;;;0.30;0.30;;;;;;;9.61;31.94;93157.97;5043260;28;20032;-51
2021/03/24 09:25:38;;;;;;;0.20;0.20;;;;;;;10.03;31.40;93166.59;5045364;28;20029;-47
2021/03/24 09:28:25;;;;;;;0.47;0.47;;;;;;;9.21;32.51;93169.97;5038517;28;20033;-44
2021/03/24 09:30:50;;;;;;;0.20;0.20;;;;;;;8.96;34.87;93169.72;5040535;28;20113;-45
2021/03/24 09:33:27;;;;;;;0.20;0.20;;;;;;;8.71;33.05;93174.94;5037724;28;20111;-46
2021/03/24 09:36:05;;;;;;;0.60;0.60;;;;;;;8.63;31.75;93176.16;5049566;28;20025;-44
2021/03/24 09:38:35;;;;;;;0.20;0.20;;;;;;;8.80;34.05;93179.94;5048262;28;20033;-45
2021/03/24 09:41:28;;;;;;;0.20;0.20;;;;;;;9.09;34.19;93184.09;5047895;28;20485;-44
2021/03/24 09:43:58;;;;;;;0.35;0.35;;;;;;;9.87;34.79;93196.19;5047281;28;20032;-46
2021/03/24 09:46:46;;;;;;;0.25;0.25;;;;;;;9.69;32.57;93185.53;5045392;28;20021;-44
2021/03/24 09:49:21;;;;;;;0.65;0.65;;;;;;;10.16;35.27;93202.31;5041098;28;20036;-45
2021/03/24 09:52:14;;;;;;;0.30;0.30;;;;;;;9.40;33.08;93184.19;5038285;28;20512;-49
2021/03/24 09:54:59;;;;;;;0.20;0.20;;;;;;;9.25;34.70;93197.91;5009743;28;20132;-48
2021/03/24 09:57:29;;;;;;;0.47;0.47;;;;;;;9.47;33.45;93199.97;5036466;28;20025;-48
2021/03/24 10:00:07;;;;;;;0.43;0.43;;;;;;;9.65;32.92;93194.16;5026722;28;20035;-48
2021/03/24 10:02:39;;;;;;;2.17;1.05;;;;;;;10.58;32.31;93199.88;5026761;28;20030;-48
2021/03/24 10:05:10;;;;;;;0.30;0.30;;;;;;;11.15;31.05;93198.06;5026818;28;20026;-47
2021/03/24 10:07:41;;;;;;;0.65;0.50;;;;;;;10.69;31.16;93202.25;5026868;28;20061;-48
2021/03/24 10:10:27;;;;;;;0.20;0.20;;;;;;;10.94;31.46;93199.59;5027871;28;20025;-46
2021/03/24 10:13:03;;;;;;;0.22;0.22;;;;;;;11.72;32.45;93202.97;5028077;28;20033;-47
2021/03/24 10:15:51;;;;;;;0.50;0.50;;;;;;;11.35;31.49;93204.59;5036016;28;20053;-44
2021/03/24 10:18:28;;;;;;;0.55;0.55;;;;;;;11.28;31.66;93208.88;5046673;28;20085;-45
2021/03/24 10:21:06;;;;;;;1.85;0.80;;;;;;;11.72;29.92;93214.78;5046640;28;20032;-45
2021/03/24 10:23:39;;;;;;;0.40;0.40;;;;;;;12.56;29.01;93212.16;5046357;28;20481;-45
2021/03/24 10:26:15;;;;;;;0.95;0.88;;;;;;;12.07;29.96;93207.34;5047366;28;20093;-45
2021/03/24 10:28:50;;;;;;;0.75;0.68;;;;;;;11.84;30.51;93204.75;5035731;28;20505;-45
2021/03/24 10:31:37;;;;;;;0.73;0.22;;;;;;;12.50;28.41;93211.63;5035744;28;20108;-45
2021/03/24 10:34:16;;;;;;;10.35;2.05;;;;;;;12.56;26.69;93214.91;5037341;28;20029;-44
2021/03/24 10:36:53;;;;;;;0.73;0.73;;;;;;;12.42;30.48;93219.28;5038175;28;20028;-45
2021/03/24 10:39:43;;;;;;;0.82;0.80;;;;;;;12.88;29.88;93223.09;5037000;28;20113;-47
2021/03/24 10:42:53;;;;;;;0.82;0.82;;;;;;;13.44;27.75;93210.31;5042772;28;20037;-46
2021/03/24 10:45:33;;;;;;;0.40;0.40;;;;;;;12.47;27.83;93230.13;5025122;28;20041;-46
2021/03/24 10:48:05;;;;;;;0.25;0.25;;;;;;;11.55;30.30;93225.72;5023464;28;20029;-46
2021/03/24 10:51:18;;;;;;;0.43;0.43;;;;;;;11.27;30.14;93228.78;5026969;28;20121;-45
2021/03/24 10:53:44;;;;;;;0.50;0.50;;;;;;;11.05;31.08;93237.88;5039044;28;20080;-44
2021/03/24 10:56:32;;;;;;;0.52;0.52;;;;;;;10.56;31.75;93233.56;5043641;28;20111;-44
2021/03/24 10:59:24;;;;;;;0.20;0.20;;;;;;;10.84;33.80;93240.88;5042623;28;20157;-45
2021/03/24 11:02:18;;;;;;;0.20;0.20;;;;;;;11.63;33.67;93234.69;5043188;28;20035;-45
2021/03/24 11:04:54;;;;;;;0.30;0.30;;;;;;;12.98;29.63;93237.78;5040096;28;20048;-49
2021/03/24 11:07:34;;;;;;;0.30;0.30;;;;;;;12.98;29.72;93239.81;5040064;28;20056;-52
2021/03/24 11:10:19;;;;;;;1.00;0.95;;;;;;;13.41;29.45;93247.50;5029349;28;20502;-46
2021/03/24 11:12:48;;;;;;;0.43;0.40;;;;;;;13.50;29.27;93247.59;5026351;28;20037;-47
2021/03/24 11:15:20;;;;;;;2.03;1.83;;;;;;;12.47;30.41;93257.06;5027258;28;20112;-48
2021/03/24 11:17:49;;;;;;;1.45;1.35;;;;;;;11.17;33.44;93258.31;5031644;28;20028;-52
2021/03/24 11:20:34;;;;;;;;;;;;;;;10.58;33.89;93258.59;5025006;28;20022;-50
2021/03/24 11:23:02;;;;;;;2.85;1.67;;;;;;;10.45;34.82;93253.28;5027109;28;19916;-49
2021/03/24 11:26:03;;;;;;;1.25;1.15;;;;;;;10.25;36.75;93259.69;5041362;28;20047;-48
2021/03/24 11:28:35;;;;;;;0.73;0.73;;;;;;;9.84;36.15;93244.19;5038312;28;20044;-49
2021/03/24 11:31:11;;;;;;;1.13;0.77;;;;;;;9.84;36.74;93251.72;5031163;28;20038;-49
2021/03/24 11:33:42;;;;;;;1.30;1.20;;;;;;;9.64;36.82;93247.06;5037489;28;20037;-51
2021/03/24 11:36:22;;;;;;;0.82;0.52;;;;;;;8.97;36.36;93240.75;5040951;28;20025;-50
2021/03/24 11:38:56;;;;;;;0.70;0.52;;;;;;;9.74;31.87;93234.97;5046768;28;20029;-47
2021/03/24 11:41:23;;;;;;;0.20;0.20;;;;;;;9.95;31.02;93226.53;5043941;28;20057;-47
2021/03/24 11:43:55;;;;;;;0.50;0.50;;;;;;;11.12;33.10;93228.84;5042559;28;20517;-46
2021/03/24 11:46:29;;;;;;;0.30;0.30;;;;;;;11.27;31.70;93226.75;5046070;28;20122;-52
2021/03/24 11:49:29;;;;;;;0.35;0.32;;;;;;;11.05;32.89;93230.34;5043577;28;20033;-49
2021/03/24 11:52:32;;;;;;;0.93;0.93;;;;;;;11.60;33.20;93229.56;5042085;28;20037;-50
2021/03/24 11:55:06;;;;;;;2.05;1.95;;;;;;;11.87;30.52;93222.97;5037057;28;20033;-47
2021/03/24 11:58:02;;;;;;;1.83;1.73;;;;;;;10.87;32.34;93228.00;5036969;28;20049;-52
2021/03/24 12:01:02;;;;;;;0.60;0.60;;;;;;;11.30;33.00;93224.91;5037053;28;20021;-55
2021/03/24 12:03:54;;;;;;;0.40;0.40;;;;;;;11.38;33.57;93225.59;5034450;28;20082;-52
2021/03/24 12:06:38;;;;;;;0.28;0.28;;;;;;;11.82;31.40;93226.72;5035292;28;20033;-51
2021/03/24 12:09:18;;;;;;;0.70;0.70;;;;;;;11.41;31.81;93227.28;5035920;28;20511;-53
2021/03/24 12:11:44;;;;;;;0.63;0.63;;;;;;;11.60;31.53;93215.75;5037029;28;20025;-49
2021/03/24 12:14:18;;;;;;;0.80;0.50;;;;;;;11.85;32.13;93222.06;5035394;28;20507;-52
2021/03/24 12:16:50;;;;;;;2.08;0.50;;;;;;;11.55;32.25;93214.66;5044193;28;20033;-53
2021/03/24 12:19:27;;;;;;;2.38;1.05;;;;;;;11.26;29.89;93213.50;5045975;28;20025;-48
2021/03/24 12:21:54;;;;;;;0.93;0.90;;;;;;;10.74;32.44;93219.94;5044700;28;20037;-50
2021/03/24 12:24:25;;;;;;;0.30;0.30;;;;;;;10.40;32.42;93210.03;5038903;28;20034;-47
2021/03/24 12:26:50;;;;;;;0.30;0.30;;;;;;;9.96;30.00;93208.72;5029434;28;20036;-46